Calvin, Oklahoma
Current Conditions -  °F | °C
As of 8:35 PM on Wednesday 26 Nov 2014 (Local Time) from KADH Reporting Station
Clear Clear  
Wind Chill: 39°   Ceiling: Unl
Heat Index: 45°   Visibility: 10mi
Dew Point: 30°   Wind: 10mph
Humidity: 57%   Direction: 360°N
Pressure: 30.35"   Gusts: 22mph
Location:  34.97°N, 96.25°W
Report Text: KADH 270235Z AUTO 36009G19KT 10SM CLR 07/M01 A3035 RMK AO2
Loading
Personal Weather Stations






























Interactive Weather Map New forecast layout! Learn more

10-Day Weather Forecast

Advertisements
Track Severe Weather on mobile